Latest Coastal Weather Observations for Wynyard

IDV60701

Issued at 11:21 am EST Wednesday 25 May 2016 (issued every 10 minutes, with the page automatically refreshed every 10 minutes)

About coastal observations | Map of coastal stations | Coastal observations for VIC | Marine services | Other Formats
Station Details ID: 091107 Name: WYNYARD AIRPORT Lat: -41.00 Lon: 145.73 Height: 12.0 m
Data from the previous 72 hours. | See also: Recent months at Wynyard
Date/Time
EST
Temp

°C
Wind Pressure Rain
since 9am
mm
Weather Cloud Vis
km
Sea
Height
m
Swell
Dir
 
Speed
knots
Gust
knots
hPa Trend Height
m
Period
s
Dir
25/11:00am 9.5 ESE 1 4 1011.5 - 0.0 - Partly cloudy 10 - - - -
25/10:30am 7.9 WSW 2 4 1012.2 - 0.0 - Partly cloudy 10 - - - -
25/10:00am 6.7 W 6 7 1012.7 - 0.0 - Partly cloudy 10 - - - -
25/09:30am 5.8 WNW 5 7 1012.8 - 0.0 - Partly cloudy 10 - - - -
25/09:00am 5.1 WNW 5 7 1013.1 - 0.0 - Cloudy 10 - - - -
25/08:30am 4.5 W 5 7 1013.4 - 0.0 - Partly cloudy 10 - - - -
25/08:00am 4.1 WNW 6 9 1013.8 - 0.0 - Partly cloudy 10 - - - -
25/07:30am 3.5 WNW 3 6 1013.5 - 0.0 - Partly cloudy 10 - - - -
25/07:00am 3.4 WNW 6 8 1013.8 - 0.0 - Cloudy 10 - - - -
25/06:30am 2.2 WNW 6 7 1013.7 - 0.0 - Partly cloudy 10 - - - -
25/06:00am 1.8 WNW 5 7 1013.6 - 0.0 - Mostly clear 10 - - - -
25/05:30am 1.5 W 3 8 1013.9 - 0.0 - Partly cloudy 10 - - - -
25/05:00am 1.3 WSW 5 7 1014.2 - 0.0 - Partly cloudy 10 - - - -
25/04:30am 1.5 W 6 7 1014.7 - 0.0 - - 10 - - - -
25/04:00am 1.2 WNW 7 9 1014.8 - 0.0 - - 10 - - - -
25/03:30am 1.5 NW 4 5 1014.9 - 0.0 - - 10 - - - -
25/03:00am 1.8 W 5 7 1015.3 - 0.0 - - 10 - - - -
25/02:30am 0.8 W 6 7 1015.2 - 0.0 - - 10 - - - -
25/02:00am 1.7 NW 4 5 1014.8 - 0.0 - - 10 - - - -
25/01:30am 0.9 W 6 7 1015.1 - 0.0 - - 10 - - - -
25/01:11am 1.3 WSW 6 7 1015.2 - 0.0 - - 10 - - - -
25/01:00am 1.7 WSW 3 5 1015.3 - 0.0 - - 5 - - - -
25/12:58am 1.7 SW 3 5 1015.4 - 0.0 - - 5 - - - -
25/12:30am 2.5 W 4 6 1016.0 - 0.0 - - 10 - - - -
25/12:00am 2.1 WSW 5 7 1016.2 - 0.0 - - 9 - - - -
 
Date/Time
EST
Temp

°C
Wind Pressure Rain
since 9am
mm
Weather Cloud Vis
km
Sea
Height
m
Swell
Dir
 
Speed
knots
Gust
knots
hPa Trend Height
m
Period
s
Dir
24/11:30pm 2.6 SSW 3 5 1016.3 - 0.0 - - 10 - - - -
24/11:00pm 1.3 WSW 6 7 1016.4 - 0.0 - - 8 - - - -
24/10:30pm 3.3 CALM 0 3 1016.2 - 0.0 - - 10 - - - -
24/10:00pm 2.6 SW 5 7 1016.5 - 0.0 - - 10 - - - -
24/09:30pm 3.2 SSW 1 5 1016.8 - 0.0 - - 10 - - - -
24/09:00pm 3.6 W 6 6 1017.2 - 0.0 - - 10 - - - -
24/08:30pm 3.7 W 8 8 1017.3 - 0.0 - - 10 - - - -
24/08:00pm 3.8 WNW 5 6 1017.1 - 0.0 - - 10 - - - -
24/07:30pm 4.4 W 8 9 1017.2 - 0.0 - - 10 - - - -
24/07:00pm 4.9 W 4 7 1017.1 - 0.0 - - 10 - - - -
24/06:30pm 5.3 WSW 6 7 1016.8 - 0.0 - - 10 - - - -
24/06:00pm 8.7 NW 2 4 1016.6 - 0.0 - - 10 - - - -
24/05:30pm 9.8 NW 6 7 1016.4 - 0.0 - - 10 - - - -
24/05:00pm 9.6 W 6 8 1016.0 - 0.0 - - 10 - - - -
24/04:30pm 11.5 WSW 11 17 1015.8 - 0.0 - - 10 - - - -
24/04:00pm 12.4 WSW 15 21 1015.8 - 0.0 - - 10 - - - -
24/03:30pm 12.8 SW 11 15 1015.7 - 0.0 - Partly cloudy 10 - - - -
24/03:00pm 12.6 WSW 10 14 1015.5 - 0.0 - Partly cloudy 10 - - - -
24/02:30pm 14.1 WSW 10 15 1015.1 - 0.0 - Partly cloudy 10 - - - -
24/02:00pm 12.9 SW 11 15 1015.0 - 0.0 - Partly cloudy 10 - - - -
24/01:30pm 13.1 WSW 9 13 1015.2 - 0.0 - Partly cloudy 10 - - - -
24/01:00pm 14.0 WSW 10 16 1014.9 - 0.0 - Partly cloudy 10 - - - -
24/12:30pm 13.1 WSW 15 29 1015.3 - 0.0 - Partly cloudy 10 - - - -
24/12:25pm 13.3 SW 16 29 1015.2 - 0.0 - Partly cloudy 10 - - - -
24/12:00pm 13.3 WSW 16 23 1015.5 - 0.0 - Mostly clear 10 - - - -
24/11:42am 12.8 WSW 15 25 1015.6 - 0.0 - Partly cloudy 10 - - - -
24/11:30am 13.2 WSW 13 19 1015.7 - 0.0 - Partly cloudy 10 - - - -
24/11:00am 12.7 WSW 8 12 1016.0 - 0.0 - Partly cloudy 10 - - - -
24/10:30am 12.3 SW 6 10 1016.1 - 0.0 - - 10 - - - -
24/10:00am 11.6 W 7 12 1016.2 - 0.0 - Partly cloudy 10 - - - -
24/09:30am 10.6 NW 7 9 1016.0 - 0.0 - - 10 - - - -
24/09:00am 9.6 WNW 9 11 1016.1 - 1.6 - - 10 - - - -
24/08:30am 8.8 NW 8 10 1015.5 - 1.6 - - 10 - - - -
24/08:00am 7.8 NW 7 9 1015.3 - 1.6 - - 10 - - - -
24/07:30am 7.1 NW 8 10 1015.0 - 1.6 - - 10 - - - -
24/07:00am 7.6 NNW 7 10 1014.5 - 1.6 - - 10 - - - -
24/06:30am 6.0 N 5 6 1014.3 - 1.6 - - 10 - - - -
24/06:00am 6.2 N 4 6 1014.1 - 1.6 - Mostly clear 10 - - - -
24/05:30am 6.4 NNE 4 6 1013.8 - 1.6 - - 10 - - - -
24/05:00am 5.4 NNE 4 6 1013.5 - 1.6 - - 10 - - - -
24/04:30am 4.5 SSE 4 5 1013.3 - 1.6 - - 10 - - - -
24/04:00am 5.7 WNW 6 7 1013.1 - 1.4 - - 10 - - - -
24/03:30am 5.0 W 6 8 1013.3 - 1.4 - - 10 - - - -
24/03:00am 6.2 W 8 10 1013.2 - 1.4 - Mostly clear 10 - - - -
24/02:30am 6.3 W 9 11 1013.5 - 1.4 - Partly cloudy 10 - - - -
24/02:00am 6.8 W 7 8 1013.7 - 1.4 - Partly cloudy 10 - - - -
24/01:30am 6.5 W 8 9 1013.6 - 1.4 - Partly cloudy 10 - - - -
24/01:00am 6.8 W 9 10 1013.5 - 1.2 - Partly cloudy 10 - - - -
24/12:30am 6.7 W 11 13 1013.6 - 1.2 - Partly cloudy 10 - - - -
24/12:00am 7.2 W 12 15 1013.6 - 1.2 - - 10 - - - -
 
Date/Time
EST
Temp

°C
Wind Pressure Rain
since 9am
mm
Weather Cloud Vis
km
Sea
Height
m
Swell
Dir
 
Speed
knots
Gust
knots
hPa Trend Height
m
Period
s
Dir
23/11:30pm 6.8 W 12 14 1013.6 - 1.2 - - 10 - - - -
23/11:00pm 7.1 W 11 14 1013.7 - 1.2 - - 10 - - - -
23/10:30pm 7.0 W 11 15 1013.8 - 1.2 - - 10 - - - -
23/10:00pm 7.3 W 11 13 1013.8 - 1.2 - - 10 - - - -
23/09:30pm 7.7 W 14 19 1013.7 - 1.2 - - 10 - - - -
23/09:00pm 8.3 WSW 14 19 1013.5 - 1.2 - - 10 - - - -
23/08:30pm 8.8 WSW 17 22 1013.3 - 1.2 - - 10 - - - -
23/08:00pm 8.5 WSW 15 21 1013.0 - 1.2 - - 10 - - - -
23/07:30pm 8.3 WSW 14 21 1012.7 - 1.2 - - 10 - - - -
23/07:00pm 8.8 WSW 16 21 1012.5 - 1.2 - - 10 - - - -
23/06:30pm 8.5 WSW 16 22 1012.2 - 1.2 - - 10 - - - -
23/06:00pm 8.5 WSW 13 18 1012.1 - 1.2 - - 10 - - - -
23/05:30pm 8.6 WSW 15 22 1011.4 - 1.2 - Partly cloudy 10 - - - -
23/05:04pm 8.7 WSW 18 28 1011.5 - 1.2 - Partly cloudy 10 - - - -
23/05:00pm 8.9 WSW 17 23 1011.5 - 1.2 - Partly cloudy 10 - - - -
23/04:30pm 8.9 WSW 16 24 1010.9 - 1.2 - Partly cloudy 10 - - - -
23/04:10pm 9.1 WSW 20 30 1011.0 - 1.2 - Partly cloudy 10 - - - -
23/04:00pm 9.0 WSW 19 28 1011.0 - 1.2 - Partly cloudy 10 - - - -
23/03:50pm 9.7 W 20 32 1010.6 - 1.2 - Partly cloudy 10 - - - -
23/03:30pm 10.2 W 17 23 1010.3 - 1.2 - Partly cloudy 10 - - - -
23/03:00pm 9.9 WSW 24 35 1009.9 - 1.2 Recent precip. Mostly cloudy 8 - - - -
23/02:36pm 10.8 W 20 31 1009.4 - 1.2 - Partly cloudy 10 - - - -
23/02:30pm 10.4 W 19 27 1009.3 - 1.2 - Partly cloudy 10 - - - -
23/02:27pm 10.5 W 18 24 1009.3 - 1.2 - Partly cloudy 10 - - - -
23/02:06pm 9.8 WSW 26 37 1009.2 - 0.6 - Partly cloudy 5 - - - -
23/02:00pm 11.6 W 23 36 1008.9 - 0.4 - Partly cloudy 10 - - - -
23/01:30pm 10.3 WSW 21 31 1008.8 - 0.4 - Partly cloudy 6 - - - -
23/01:00pm 10.9 W 19 29 1008.5 - 0.4 - Partly cloudy 10 - - - -
23/12:32pm 11.1 WSW 17 27 1008.2 - 0.2 - Partly cloudy 10 - - - -
23/12:31pm 10.9 WSW 17 27 1008.1 - 0.2 - Partly cloudy 10 - - - -
23/12:30pm 10.9 WSW 17 27 1008.1 - 0.2 - Partly cloudy 10 - - - -
23/12:10pm 10.6 WSW 24 34 1008.0 - 0.0 - Partly cloudy 5 - - - -
23/12:01pm 12.3 WSW 20 30 1007.8 - 0.0 - Partly cloudy 10 - - - -
23/12:00pm 12.9 WSW 20 29 1008.0 - 0.0 - Cloudy 10 - - - -
23/11:30am 11.5 W 19 29 1008.1 - 0.0 - Partly cloudy 9 - - - -
23/11:00am 12.2 W 17 25 1007.6 - 0.0 - Partly cloudy 10 - - - -
23/10:30am 10.6 W 18 27 1007.4 - 0.0 - Partly cloudy 10 - - - -
23/10:03am 10.9 WSW 18 28 1006.9 - 0.0 - Partly cloudy 10 - - - -
23/10:00am 10.7 WSW 19 28 1006.9 - 0.0 - Partly cloudy 10 - - - -
23/09:30am 10.7 W 18 26 1006.9 - 0.0 - Partly cloudy 10 - - - -
23/09:12am 10.9 W 21 33 1006.5 - 0.0 - Partly cloudy 9 - - - -
23/09:06am 11.0 W 16 26 1006.6 - 0.0 - Partly cloudy 8 - - - -
23/09:00am 11.1 W 13 19 1006.3 - 13.0 Rain Cloudy 5 - - - -
23/08:46am 11.3 W 15 25 1005.9 - 12.8 - Partly cloudy 5 - - - -
23/08:42am 11.3 W 12 18 1005.9 - 12.8 - Partly cloudy 5 - - - -
23/08:30am 11.1 WNW 10 13 1005.5 - 12.8 - Partly cloudy 10 - - - -
23/08:00am 11.1 W 12 15 1005.0 - 12.8 - Partly cloudy 10 - - - -
23/07:30am 11.0 W 12 17 1004.7 - 12.8 - Partly cloudy 10 - - - -
23/07:16am 11.2 WSW 15 23 1004.8 - 12.8 - Partly cloudy 10 - - - -
23/07:00am 11.9 WNW 17 31 1004.8 - 12.6 - Partly cloudy 5 - - - -
23/06:58am 12.1 WNW 15 31 1004.8 - 12.6 - Partly cloudy 5 - - - -
23/06:30am 12.6 WNW 11 19 1005.0 - 12.0 - Partly cloudy 10 - - - -
23/06:16am 12.2 WNW 9 13 1005.0 - 12.0 - Partly cloudy 10 - - - -
23/06:14am 12.0 WNW 8 13 1005.0 - 12.0 - Partly cloudy 10 - - - -
23/06:00am 11.7 SW 5 20 1005.1 - 12.0 Rain Cloudy 1 - - - -
23/05:58am 11.6 S 5 20 1004.8 - 11.8 - Partly cloudy 1 - - - -
23/05:49am 11.0 S 3 5 1005.2 - 8.8 - Partly cloudy 4 - - - -
23/05:30am 11.1 CALM 0 0 1005.4 - 8.0 - Partly cloudy 10 - - - -
23/05:00am 10.9 CALM 0 0 1005.5 - 8.0 - Partly cloudy 10 - - - -
23/04:30am 11.3 NNW 2 5 1005.5 - 8.0 - Partly cloudy 9 - - - -
23/04:00am 11.4 W 5 7 1005.6 - 7.6 - Partly cloudy 10 - - - -
23/03:30am 11.9 WNW 6 10 1005.8 - 7.2 - Partly cloudy 10 - - - -
23/03:00am 12.1 WSW 10 14 1005.5 - 7.0 Recent precip. Cloudy 10 - - - -
23/02:30am 12.5 WSW 12 17 1005.6 - 6.8 - Partly cloudy 10 - - - -
23/02:12am 12.7 WSW 16 23 1005.5 - 6.8 - Partly cloudy 10 - - - -
23/02:03am 12.9 WSW 22 32 1005.5 - 6.6 - Partly cloudy 6 - - - -
23/02:00am 13.1 W 24 34 1005.4 - 6.6 - Partly cloudy 4 - - - -
23/01:54am 14.3 WNW 20 34 1005.4 - 6.6 - Partly cloudy 4 - - - -
23/01:51am 14.8 NW 17 31 1005.3 - 6.2 - Partly cloudy 5 - - - -
23/01:50am 15.1 NW 16 27 1005.3 - 6.2 - Partly cloudy 7 - - - -
23/01:30am 15.4 NE 9 15 1005.4 - 6.0 - Cloudy 10 - - - -
23/01:04am 14.6 E 9 14 1006.1 - 5.8 - Partly cloudy 8 - - - -
23/01:00am 14.8 ENE 9 17 1006.3 - 5.8 - Partly cloudy 7 - - - -
23/12:47am 14.9 ENE 7 11 1006.6 - 5.6 - Partly cloudy 5 - - - -
23/12:46am 14.9 ENE 7 11 1006.5 - 5.6 - Partly cloudy 6 - - - -
23/12:30am 14.5 SE 5 8 1006.7 - 4.8 - Partly cloudy 5 - - - -
23/12:27am 14.4 SE 6 8 1006.6 - 4.6 - Partly cloudy 5 - - - -
23/12:00am 14.0 ESE 6 9 1007.0 - 3.8 Rain Cloudy 10 - - - -
 
Date/Time
EST
Temp

°C
Wind Pressure Rain
since 9am
mm
Weather Cloud Vis
km
Sea
Height
m
Swell
Dir
 
Speed
knots
Gust
knots
hPa Trend Height
m
Period
s
Dir
22/11:42pm 14.2 W 4 9 1008.0 - 3.4 - Partly cloudy 10 - - - -
22/11:30pm 14.1 SSW 5 9 1008.1 - 3.2 - Partly cloudy 5 - - - -
22/11:26pm 14.0 SSW 4 9 1008.5 - 3.0 - Partly cloudy 5 - - - -
22/11:00pm 14.5 SSE 4 6 1008.4 - 2.0 - Cloudy 7 - - - -
22/10:30pm 14.7 ESE 5 10 1008.9 - 0.6 - Partly cloudy 10 - - - -
22/10:00pm 15.1 ESE 8 12 1009.6 - 0.0 - Cloudy 10 - - - -
22/09:30pm 14.7 ESE 12 17 1009.8 - 0.0 - Partly cloudy 10 - - - -
22/09:00pm 14.7 ESE 13 18 1009.9 - 0.0 - Cloudy 10 - - - -
22/08:30pm 14.8 ESE 13 16 1010.2 - 0.0 - - 10 - - - -
22/08:00pm 14.4 ESE 13 17 1010.7 - 0.0 - Partly cloudy 10 - - - -
22/07:30pm 14.5 ESE 13 17 1010.9 - 0.0 - - 10 - - - -
22/07:00pm 14.4 E 11 16 1011.1 - 0.0 - - 10 - - - -
22/06:30pm 14.4 ESE 11 15 1011.4 - 0.0 - - 10 - - - -
22/06:00pm 14.4 ESE 12 16 1011.6 - 0.0 - - 10 - - - -
22/05:30pm 14.3 SE 13 17 1011.9 - 0.0 - - 10 - - - -
22/05:00pm 14.2 ESE 12 19 1012.2 - 0.0 - - 10 - - - -
22/04:30pm 14.3 ESE 12 15 1012.8 - 0.0 - - 10 - - - -
22/04:03pm 14.7 E 12 16 1013.0 - 0.0 - Partly cloudy 10 - - - -
22/04:00pm 14.7 E 11 16 1012.9 - 0.0 - Partly cloudy 10 - - - -
22/03:38pm 15.3 E 9 16 1013.4 - 0.0 - Partly cloudy 10 - - - -
22/03:37pm 15.3 E 9 16 1013.5 - 0.0 - Partly cloudy 10 - - - -
22/03:30pm 15.3 E 10 16 1013.5 - 0.0 - Partly cloudy 10 - - - -
22/03:00pm 15.5 E 10 16 1013.8 - 0.0 - Mostly cloudy 10 - - - -
22/02:30pm 15.4 E 10 17 1014.1 - 0.0 - Partly cloudy 10 - - - -
22/02:00pm 15.1 ESE 12 18 1014.4 - 0.0 - Partly cloudy 10 - - - -
22/01:30pm 15.1 ESE 12 18 1014.7 - 0.0 - Partly cloudy 10 - - - -
22/01:00pm 14.8 ESE 12 17 1015.3 - 0.0 - Cloudy 10 - - - -
22/12:30pm 14.9 ESE 15 21 1015.0 - 0.0 - Partly cloudy 10 - - - -
22/12:00pm 14.7 E 13 19 1015.9 - 0.0 - Cloudy 10 - - - -
22/11:30am 14.2 E 12 18 1016.5 - 0.0 - Cloudy 10 - - - -

Other Formats:

Comma delimited format used in spreadsheet applications
http://www.bom.gov.au/fwo/IDV60701/IDV60701.95957.axf

JavaScript Object Notation format (JSON) in row-major order
http://www.bom.gov.au/fwo/IDV60701/IDV60701.95957.json